Hyde, Louisiana
Current Conditions -  °F | °C
As of 4:35 PM on Friday 19 Dec 2014 (Local Time) from KHZR Reporting Station
Light Rain Light Rain  
Wind Chill: 45°   Ceiling: 600
Heat Index: 49°   Visibility: 7mi
Dew Point: 47°   Wind: 7mph
Humidity: 96%   Direction: 50°NE
Pressure: 30.08"   Gusts: NA
Location:  30.9317°N, 91.8606°W
Report Text: KHZR 192235Z AUTO 05006KT 7SM -RA BKN006 BKN011 OVC038 09/09 A3008 RMK AO2 P0005 T00920086
Loading
Personal Weather Stations






























Interactive Weather Map New forecast layout! Learn more

10-Day Weather Forecast

Advertisements
Track Severe Weather on mobile